createdAt,value
2022-11-16T00:00:20.570Z,93.07
2022-11-16T00:01:19.551Z,93.28
2022-11-16T00:02:19.516Z,93.63
2022-11-16T00:03:20.599Z,93.73
2022-11-16T00:04:21.561Z,93.94
2022-11-16T00:05:22.055Z,94.04
2022-11-16T00:06:20.551Z,94.19
2022-11-16T00:07:19.502Z,94.29
2022-11-16T00:08:19.510Z,94.50
2022-11-16T00:09:20.443Z,94.81
2022-11-16T00:10:19.401Z,95.02
2022-11-16T00:11:19.424Z,94.92
2022-11-16T00:12:19.430Z,94.97
2022-11-16T00:13:19.456Z,94.87
2022-11-16T00:14:21.423Z,94.56
2022-11-16T00:15:19.355Z,94.31
2022-11-16T00:16:19.333Z,94.10
2022-11-16T00:17:19.313Z,94.10
2022-11-16T00:18:19.302Z,93.59
2022-11-16T00:19:20.302Z,93.28
2022-11-16T00:20:20.311Z,93.18
2022-11-16T00:21:22.494Z,93.22
2022-11-16T00:22:19.250Z,93.38
2022-11-16T00:23:19.234Z,93.69
2022-11-16T00:24:20.236Z,93.44
2022-11-16T00:25:19.313Z,92.68
2022-11-16T00:26:19.201Z,92.06
2022-11-16T00:27:19.203Z,91.64
2022-11-16T00:28:19.172Z,91.19
2022-11-16T00:29:20.198Z,90.78
2022-11-16T00:30:20.135Z,90.33
2022-11-16T00:31:19.133Z,89.71
2022-11-16T00:32:19.124Z,89.44
2022-11-16T00:33:19.114Z,89.75
2022-11-16T00:34:19.173Z,89.65
2022-11-16T00:35:19.184Z,89.65
2022-11-16T00:36:19.079Z,90.00
2022-11-16T00:37:19.086Z,90.20
2022-11-16T00:38:20.127Z,90.41
2022-11-16T00:39:20.304Z,90.57
2022-11-16T00:40:19.113Z,90.16
2022-11-16T00:41:19.022Z,90.16
2022-11-16T00:42:18.996Z,89.85
2022-11-16T00:43:18.982Z,89.85
2022-11-16T00:44:18.955Z,89.65
2022-11-16T00:45:19.119Z,89.44
2022-11-16T00:46:18.945Z,89.34
2022-11-16T00:47:22.166Z,89.48
2022-11-16T00:48:19.007Z,89.17
2022-11-16T00:49:18.900Z,89.58
2022-11-16T00:50:18.974Z,89.94
2022-11-16T00:51:19.933Z,90.25
2022-11-16T00:52:18.919Z,90.45
2022-11-16T00:53:18.847Z,91.01
2022-11-16T00:54:18.934Z,91.42
2022-11-16T00:55:18.907Z,91.73
2022-11-16T00:56:19.845Z,92.14
2022-11-16T00:57:20.909Z,92.35
2022-11-16T00:58:18.776Z,92.55
2022-11-16T00:59:19.867Z,92.55
2022-11-16T01:00:18.838Z,92.55
2022-11-16T01:01:18.780Z,92.35
2022-11-16T01:02:18.798Z,92.35
2022-11-16T01:03:18.724Z,92.35
2022-11-16T01:04:18.780Z,92.66
2022-11-16T01:05:19.709Z,92.66
2022-11-16T01:06:18.777Z,92.46
2022-11-16T01:07:18.757Z,92.31
2022-11-16T01:08:18.650Z,92.21
2022-11-16T01:09:18.699Z,92.21
2022-11-16T01:10:18.628Z,92.00
2022-11-16T01:11:18.598Z,91.79
2022-11-16T01:12:18.634Z,91.58
2022-11-16T01:13:18.632Z,91.58
2022-11-16T01:14:18.642Z,91.69
2022-11-16T01:15:18.559Z,91.69
2022-11-16T01:16:18.552Z,91.94
2022-11-16T01:17:18.580Z,92.14
2022-11-16T01:18:18.558Z,92.35
2022-11-16T01:19:18.500Z,92.35
2022-11-16T01:20:18.538Z,92.35
2022-11-16T01:21:18.580Z,92.46
2022-11-16T01:22:18.520Z,92.55
2022-11-16T01:23:18.451Z,92.60
2022-11-16T01:24:18.450Z,92.60
2022-11-16T01:25:18.512Z,92.80
2022-11-16T01:26:18.518Z,92.91
2022-11-16T01:27:18.448Z,92.91
2022-11-16T01:28:18.395Z,92.86
2022-11-16T01:29:18.372Z,92.76
2022-11-16T01:30:40.459Z,92.76
2022-11-16T01:31:18.355Z,92.76
2022-11-16T01:32:18.379Z,92.66
2022-11-16T01:34:28.555Z,92.46
2022-11-16T01:35:28.603Z,92.25
2022-11-16T01:36:28.524Z,92.35
2022-11-16T01:37:28.552Z,92.55
2022-11-16T01:38:29.947Z,92.46
2022-11-16T01:39:28.495Z,92.66
2022-11-16T01:40:28.537Z,92.86
2022-11-16T01:41:28.541Z,93.07
2022-11-16T01:42:31.781Z,93.18
2022-11-16T01:43:28.443Z,92.97
2022-11-16T01:44:49.472Z,92.97
2022-11-16T01:45:28.468Z,92.97
2022-11-16T01:46:28.477Z,92.97
2022-11-16T01:47:28.381Z,92.97
2022-11-16T01:48:29.534Z,93.18
2022-11-16T01:49:28.393Z,93.38
2022-11-16T01:50:28.351Z,93.38
2022-11-16T01:51:28.334Z,93.49
2022-11-16T01:52:28.313Z,93.49
2022-11-16T01:53:28.364Z,93.38
2022-11-16T01:54:28.331Z,93.38
2022-11-16T01:55:28.279Z,93.38
2022-11-16T01:56:28.276Z,93.38
2022-11-16T01:57:28.351Z,93.38
2022-11-16T01:58:28.295Z,93.49
2022-11-16T01:59:29.304Z,93.59
2022-11-16T02:00:28.235Z,93.90
2022-11-16T02:01:29.338Z,93.90
2022-11-16T02:02:30.264Z,93.90
2022-11-16T02:03:28.225Z,93.69
2022-11-16T02:04:28.197Z,93.69
2022-11-16T02:05:28.146Z,93.79
2022-11-16T02:06:28.204Z,94.00
2022-11-16T02:07:29.171Z,94.00
2022-11-16T02:08:28.125Z,94.00
2022-11-16T02:09:28.085Z,94.00
2022-11-16T02:10:28.105Z,93.96
2022-11-16T02:11:28.139Z,94.06
2022-11-16T02:12:28.148Z,94.17
2022-11-16T02:13:28.086Z,94.17
2022-11-16T02:14:28.043Z,94.06
2022-11-16T02:15:28.018Z,93.71
2022-11-16T02:16:28.107Z,93.30
2022-11-16T02:17:27.991Z,93.19
2022-11-16T02:18:28.044Z,93.09
2022-11-16T02:19:27.981Z,93.09
2022-11-16T02:20:28.003Z,92.93
2022-11-16T02:21:28.006Z,93.13
2022-11-16T02:22:28.007Z,93.44
2022-11-16T02:23:27.966Z,93.75
2022-11-16T02:24:27.908Z,93.85
2022-11-16T02:25:27.928Z,93.75
2022-11-16T02:26:27.893Z,93.75
2022-11-16T02:27:27.941Z,93.75
2022-11-16T02:28:27.860Z,93.85
2022-11-16T02:29:27.842Z,93.96
2022-11-16T02:30:27.818Z,94.06
2022-11-16T02:31:27.833Z,93.96
2022-11-16T02:32:27.868Z,93.85
2022-11-16T02:33:27.778Z,93.75
2022-11-16T02:34:27.790Z,93.65
2022-11-16T02:35:27.761Z,93.75
2022-11-16T02:36:28.851Z,93.65
2022-11-16T02:37:27.807Z,93.65
2022-11-16T02:38:27.772Z,93.85
2022-11-16T02:39:27.706Z,93.96
2022-11-16T02:40:27.688Z,94.06
2022-11-16T02:41:28.790Z,94.17
2022-11-16T02:42:27.740Z,94.37
2022-11-16T02:43:27.659Z,94.37
2022-11-16T02:44:27.640Z,94.42
2022-11-16T02:45:27.627Z,94.62
2022-11-16T02:46:27.659Z,94.72
2022-11-16T02:47:29.682Z,94.82
2022-11-16T02:48:28.644Z,94.93
2022-11-16T02:49:27.570Z,94.93
2022-11-16T02:50:28.630Z,95.03
2022-11-16T02:51:27.596Z,95.03
2022-11-16T02:52:27.604Z,95.03
2022-11-16T02:53:28.537Z,95.03
2022-11-16T02:54:27.520Z,95.14
2022-11-16T02:55:27.513Z,95.24
2022-11-16T02:56:27.522Z,95.34
2022-11-16T02:57:27.471Z,95.30
2022-11-16T02:58:27.549Z,95.20
2022-11-16T02:59:27.492Z,95.05
2022-11-16T03:00:27.430Z,94.64
2022-11-16T03:01:27.496Z,94.23
2022-11-16T03:02:27.428Z,93.98
2022-11-16T03:03:27.493Z,93.66
2022-11-16T03:04:27.435Z,93.35
2022-11-16T03:05:27.361Z,93.25
2022-11-16T03:06:27.425Z,92.84
2022-11-16T03:07:27.458Z,92.74
2022-11-16T03:08:27.382Z,93.09
2022-11-16T03:09:27.323Z,93.40
2022-11-16T03:10:27.294Z,93.71
2022-11-16T03:11:27.359Z,93.81
2022-11-16T03:12:27.332Z,93.66
2022-11-16T03:13:27.338Z,93.50
2022-11-16T03:14:27.305Z,93.60
2022-11-16T03:15:27.247Z,93.56
2022-11-16T03:16:27.267Z,93.66
2022-11-16T03:17:27.266Z,93.66
2022-11-16T03:18:27.204Z,93.56
2022-11-16T03:19:27.177Z,93.31
2022-11-16T03:20:28.236Z,93.01
2022-11-16T03:21:27.189Z,92.80
2022-11-16T03:22:27.198Z,93.05
2022-11-16T03:23:27.136Z,92.94
2022-11-16T03:24:27.215Z,93.05
2022-11-16T03:25:27.120Z,92.84
2022-11-16T03:26:27.129Z,92.53
2022-11-16T03:27:27.126Z,92.53
2022-11-16T03:28:27.086Z,92.78
2022-11-16T03:29:27.048Z,92.99
2022-11-16T03:30:27.057Z,93.19
2022-11-16T03:31:27.056Z,93.44
2022-11-16T03:33:37.254Z,94.06
2022-11-16T03:34:37.314Z,94.27
2022-11-16T03:35:37.244Z,94.37
2022-11-16T03:36:37.224Z,94.68
2022-11-16T03:37:37.235Z,94.89
2022-11-16T03:38:37.387Z,94.99
2022-11-16T03:39:37.244Z,95.09
2022-11-16T03:40:37.184Z,95.09
2022-11-16T03:41:37.155Z,95.09
2022-11-16T03:42:37.116Z,95.09
2022-11-16T03:43:37.123Z,95.09
2022-11-16T03:44:37.088Z,95.30
2022-11-16T03:45:38.147Z,95.40
2022-11-16T03:46:37.089Z,95.61
2022-11-16T03:47:37.103Z,95.40
2022-11-16T03:48:37.158Z,95.30
2022-11-16T03:49:37.049Z,95.09
2022-11-16T04:03:25.078Z,94.84
2022-11-16T04:04:25.062Z,94.64
2022-11-16T04:05:25.161Z,94.68
2022-11-16T04:06:25.150Z,94.68
2022-11-16T04:07:25.139Z,94.57
2022-11-16T04:09:35.267Z,94.68
2022-11-16T04:10:36.255Z,94.78
2022-11-16T04:11:35.320Z,94.82
2022-11-16T04:12:35.194Z,95.03
2022-11-16T04:13:35.213Z,95.34
2022-11-16T04:14:35.166Z,95.55
2022-11-16T04:15:35.275Z,95.86
2022-11-16T04:16:35.245Z,95.96
2022-11-16T04:17:35.168Z,96.06
2022-11-16T04:18:35.602Z,96.27
2022-11-16T04:19:35.124Z,96.37
2022-11-16T04:20:35.205Z,96.37
2022-11-16T04:21:35.182Z,96.37
2022-11-16T04:22:35.066Z,96.37
2022-11-16T04:23:35.075Z,96.37
2022-11-16T04:24:35.066Z,96.48
2022-11-16T04:25:36.058Z,96.58
2022-11-16T04:26:35.107Z,96.58
2022-11-16T04:27:35.016Z,96.48
2022-11-16T04:28:35.315Z,96.48
2022-11-16T04:29:35.076Z,96.48
2022-11-16T04:30:34.989Z,96.44
2022-11-16T04:31:35.978Z,96.33
2022-11-16T04:32:34.957Z,96.23
2022-11-16T04:33:34.937Z,96.02
2022-11-16T04:34:34.988Z,96.02
2022-11-16T04:35:35.016Z,95.92
2022-11-16T04:36:34.981Z,95.71
2022-11-16T04:37:34.887Z,95.67
2022-11-16T04:38:35.118Z,95.56
2022-11-16T04:39:34.898Z,95.40
2022-11-16T04:40:34.948Z,95.50
2022-11-16T04:41:34.840Z,95.61
2022-11-16T04:42:34.813Z,95.71
2022-11-16T04:43:34.830Z,95.71
2022-11-16T04:44:34.828Z,95.92
2022-11-16T04:45:34.880Z,95.92
2022-11-16T04:46:34.763Z,95.87
2022-11-16T04:47:34.852Z,95.77
2022-11-16T04:48:35.110Z,95.67
2022-11-16T04:49:34.737Z,95.77
2022-11-16T04:50:34.729Z,95.56
2022-11-16T04:51:34.698Z,95.46
2022-11-16T04:52:34.700Z,95.42
2022-11-16T04:53:34.686Z,95.10
2022-11-16T04:54:34.667Z,94.80
2022-11-16T04:55:34.661Z,94.70
2022-11-16T04:56:34.656Z,94.59
2022-11-16T04:57:34.630Z,94.38
2022-11-16T04:58:35.083Z,94.28
2022-11-16T04:59:34.603Z,93.98
2022-11-16T05:00:34.597Z,94.08
2022-11-16T05:01:34.627Z,94.08
2022-11-16T05:02:34.562Z,94.38
2022-11-16T05:03:34.560Z,94.43
2022-11-16T05:04:34.532Z,94.74
2022-11-16T05:05:35.532Z,94.95
2022-11-16T05:06:34.513Z,95.15
2022-11-16T05:07:34.533Z,95.36
2022-11-16T05:08:34.842Z,95.25
2022-11-16T05:09:34.470Z,95.42
2022-11-16T05:10:34.484Z,95.42
2022-11-16T05:11:34.442Z,95.10
2022-11-16T05:12:34.433Z,94.90
2022-11-16T05:13:34.415Z,95.00
2022-11-16T05:14:34.401Z,94.80
2022-11-16T05:15:35.412Z,94.80
2022-11-16T05:16:34.374Z,94.80
2022-11-16T05:17:34.379Z,95.00
2022-11-16T05:18:35.634Z,95.10
2022-11-16T05:19:35.345Z,95.10
2022-11-16T05:20:34.343Z,95.21
2022-11-16T05:21:34.348Z,95.06
2022-11-16T05:22:34.308Z,94.96
2022-11-16T05:23:34.294Z,94.65
2022-11-16T05:24:35.271Z,94.24
2022-11-16T05:25:36.991Z,94.13
2022-11-16T05:26:34.249Z,94.13
2022-11-16T05:27:34.275Z,93.99
2022-11-16T05:28:34.588Z,93.93
2022-11-16T05:29:34.232Z,93.93
2022-11-16T05:30:34.208Z,94.03
2022-11-16T05:31:40.190Z,94.24
2022-11-16T05:32:35.186Z,94.34
2022-11-16T05:33:34.157Z,94.45
2022-11-16T05:34:34.149Z,94.34
2022-11-16T05:35:34.154Z,94.40
2022-11-16T05:36:34.134Z,94.15
2022-11-16T05:37:34.120Z,93.43
2022-11-16T05:38:34.388Z,92.77
2022-11-16T05:39:34.098Z,92.46
2022-11-16T05:40:34.107Z,92.16
2022-11-16T05:41:34.063Z,91.64
2022-11-16T05:42:34.046Z,91.68
2022-11-16T05:43:34.062Z,92.10
2022-11-16T05:44:34.020Z,92.71
2022-11-16T05:45:34.018Z,93.02
2022-11-16T05:46:34.001Z,92.92
2022-11-16T05:47:33.986Z,93.16
2022-11-16T05:48:34.165Z,93.27
2022-11-16T05:49:33.960Z,93.16
2022-11-16T05:50:36.316Z,93.12
2022-11-16T05:51:34.935Z,93.23
2022-11-16T05:52:33.916Z,93.02
2022-11-16T05:53:33.947Z,93.16
2022-11-16T05:54:33.928Z,93.27
2022-11-16T05:55:33.880Z,93.48
2022-11-16T05:56:33.937Z,93.37
2022-11-16T05:57:33.889Z,93.48
2022-11-16T05:58:34.157Z,93.58
2022-11-16T05:59:33.823Z,93.48
2022-11-16T06:00:33.829Z,93.48
2022-11-16T06:01:33.799Z,93.68
2022-11-16T06:02:33.782Z,93.54
2022-11-16T06:03:34.832Z,93.43
2022-11-16T06:04:33.760Z,93.43
2022-11-16T06:05:39.005Z,93.54
2022-11-16T06:06:34.759Z,93.43
2022-11-16T06:07:33.776Z,93.33
2022-11-16T06:08:34.100Z,93.43
2022-11-16T06:09:33.702Z,93.23
2022-11-16T06:10:33.729Z,93.27
2022-11-16T06:11:36.057Z,93.48
2022-11-16T06:12:33.660Z,93.58
2022-11-16T06:13:33.657Z,93.68
2022-11-16T06:14:33.731Z,93.79
2022-11-16T06:15:33.659Z,93.88
2022-11-16T06:16:33.601Z,93.99
2022-11-16T06:17:33.602Z,94.30
2022-11-16T06:18:33.812Z,94.55
2022-11-16T06:19:33.579Z,94.71
2022-11-16T06:20:33.568Z,94.71
2022-11-16T06:21:33.543Z,94.71
2022-11-16T06:22:33.532Z,94.51
2022-11-16T06:23:33.512Z,94.51
2022-11-16T06:24:33.504Z,94.51
2022-11-16T06:25:33.531Z,94.40
2022-11-16T06:26:33.473Z,94.40
2022-11-16T06:27:33.463Z,94.71
2022-11-16T06:28:33.725Z,94.71
2022-11-16T06:29:33.445Z,94.51
2022-11-16T06:30:33.462Z,94.40
2022-11-16T06:31:33.427Z,94.26
2022-11-16T06:32:33.397Z,94.15
2022-11-16T06:33:33.981Z,93.95
2022-11-16T06:34:33.412Z,93.84
2022-11-16T06:35:33.375Z,93.84
2022-11-16T06:36:33.355Z,93.74
2022-11-16T06:37:33.344Z,93.74
2022-11-16T06:38:33.766Z,93.84
2022-11-16T06:39:33.305Z,93.74
2022-11-16T06:40:33.315Z,93.64
2022-11-16T06:41:35.661Z,93.64
2022-11-16T06:42:33.266Z,93.43
2022-11-16T06:43:33.290Z,93.64
2022-11-16T06:44:33.253Z,93.64
2022-11-16T06:45:33.247Z,93.74
2022-11-16T06:46:33.218Z,93.84
2022-11-16T06:47:33.211Z,93.84
2022-11-16T06:48:33.565Z,93.79
2022-11-16T06:49:33.188Z,93.95
2022-11-16T06:50:33.317Z,94.05
2022-11-16T06:51:33.146Z,94.15
2022-11-16T06:52:33.169Z,94.05
2022-11-16T06:53:33.135Z,93.95
2022-11-16T06:54:34.143Z,93.84
2022-11-16T06:55:33.136Z,93.95
2022-11-16T06:56:33.097Z,93.95
2022-11-16T06:57:33.088Z,94.05
2022-11-16T06:58:33.570Z,93.95
2022-11-16T06:59:33.047Z,93.95
2022-11-16T07:00:33.059Z,93.95
2022-11-16T07:01:33.066Z,93.95
2022-11-16T07:02:33.030Z,93.95
2022-11-16T07:03:32.997Z,93.95
2022-11-16T07:04:33.002Z,93.95
2022-11-16T07:05:32.981Z,94.30
2022-11-16T07:06:32.959Z,94.51
2022-11-16T07:07:33.011Z,94.51
2022-11-16T07:08:33.357Z,94.60
2022-11-16T07:09:32.940Z,94.60
2022-11-16T07:10:32.932Z,94.71
2022-11-16T07:11:32.900Z,94.71
2022-11-16T07:12:32.897Z,94.60
2022-11-16T07:13:32.891Z,94.81
2022-11-16T07:14:32.874Z,94.71
2022-11-16T07:15:32.867Z,94.56
2022-11-16T07:16:32.856Z,94.56
2022-11-16T07:17:32.834Z,94.60
2022-11-16T07:18:33.177Z,94.51
2022-11-16T07:19:32.801Z,94.71
2022-11-16T07:20:32.796Z,94.92
2022-11-16T07:21:33.788Z,94.92
2022-11-16T07:22:32.763Z,94.92
2022-11-16T07:23:32.763Z,94.81
2022-11-16T07:24:32.731Z,94.92
2022-11-16T07:25:33.721Z,95.02
2022-11-16T07:26:32.715Z,95.02
2022-11-16T07:27:32.685Z,94.81
2022-11-16T07:28:33.196Z,94.81
2022-11-16T07:29:32.672Z,94.81
2022-11-16T07:30:32.656Z,94.92
2022-11-16T07:31:32.657Z,94.92
2022-11-16T07:32:32.632Z,94.81
2022-11-16T07:33:32.613Z,94.92
2022-11-16T07:34:32.604Z,94.77
2022-11-16T07:35:32.608Z,94.81
2022-11-16T07:36:32.575Z,94.81
2022-11-16T07:37:32.617Z,94.92
2022-11-16T07:38:33.045Z,95.12
2022-11-16T07:39:32.532Z,95.27
2022-11-16T07:40:32.534Z,95.27
2022-11-16T07:41:32.513Z,95.37
2022-11-16T07:42:32.504Z,95.48
2022-11-16T07:43:32.483Z,95.58
2022-11-16T07:44:32.497Z,95.58
2022-11-16T07:45:32.464Z,95.68
2022-11-16T07:46:48.673Z,95.68
2022-11-16T07:47:33.446Z,95.58
2022-11-16T07:48:32.848Z,95.68
2022-11-16T07:49:32.415Z,95.83
2022-11-16T07:50:32.398Z,95.93
2022-11-16T07:51:32.394Z,96.03
2022-11-16T07:52:32.380Z,96.14
2022-11-16T07:53:32.346Z,96.09
2022-11-16T07:54:32.365Z,96.14
2022-11-16T07:55:32.325Z,96.03
2022-11-16T07:56:32.345Z,96.14
2022-11-16T07:57:32.305Z,96.24
2022-11-16T07:58:32.718Z,96.34
2022-11-16T07:59:32.300Z,96.45
2022-11-16T08:00:32.286Z,96.66
2022-11-16T08:01:32.303Z,96.70
2022-11-16T08:02:32.266Z,96.80
2022-11-16T08:03:32.244Z,96.91
2022-11-16T08:04:32.225Z,97.01
2022-11-16T08:05:32.225Z,97.01
2022-11-16T08:06:32.209Z,97.01
2022-11-16T08:07:32.211Z,97.11
2022-11-16T08:08:32.464Z,97.21
2022-11-16T08:09:32.148Z,97.01
2022-11-16T08:10:32.194Z,97.01
2022-11-16T08:11:32.140Z,97.11
2022-11-16T08:12:32.108Z,97.21
2022-11-16T08:13:32.120Z,97.21
2022-11-16T08:14:32.087Z,97.21
2022-11-16T08:15:32.068Z,97.31
2022-11-16T08:16:32.098Z,97.31
2022-11-16T08:17:32.048Z,97.38
2022-11-16T08:18:32.297Z,97.38
2022-11-16T08:19:33.008Z,97.38
2022-11-16T08:20:31.997Z,97.38
2022-11-16T08:21:32.000Z,97.38
2022-11-16T08:22:31.980Z,97.38
2022-11-16T08:23:31.968Z,97.38
2022-11-16T08:24:31.969Z,97.48
2022-11-16T08:25:31.942Z,97.43
2022-11-16T08:26:31.942Z,97.43
2022-11-16T08:27:31.911Z,97.43
2022-11-16T08:28:32.198Z,97.33
2022-11-16T08:29:32.402Z,97.33
2022-11-16T08:30:31.880Z,97.43
2022-11-16T08:31:31.869Z,97.33
2022-11-16T08:32:31.852Z,97.43
2022-11-16T08:33:31.830Z,97.33
2022-11-16T08:34:31.842Z,97.33
2022-11-16T08:35:31.811Z,97.23
2022-11-16T08:36:31.818Z,97.23
2022-11-16T08:37:31.782Z,97.08
2022-11-16T08:38:32.039Z,97.08
2022-11-16T08:39:31.767Z,97.18
2022-11-16T08:40:31.749Z,97.08
2022-11-16T08:41:31.753Z,96.97
2022-11-16T08:42:31.721Z,96.92
2022-11-16T08:43:31.708Z,96.92
2022-11-16T08:44:31.703Z,96.81
2022-11-16T08:45:31.671Z,96.92
2022-11-16T08:46:31.682Z,96.97
2022-11-16T08:47:31.655Z,97.08
2022-11-16T08:48:32.059Z,97.08
2022-11-16T08:49:31.646Z,97.08
2022-11-16T08:50:44.278Z,97.08
2022-11-16T08:51:32.612Z,96.97
2022-11-16T08:52:31.602Z,96.97
2022-11-16T08:53:31.577Z,96.97
2022-11-16T08:54:31.561Z,96.97
2022-11-16T08:55:31.556Z,97.08
2022-11-16T08:56:31.571Z,97.03
2022-11-16T08:57:31.521Z,96.93
2022-11-16T08:58:31.821Z,96.83
2022-11-16T08:59:31.494Z,96.83
2022-11-16T09:00:31.499Z,96.72
2022-11-16T09:01:31.616Z,96.72
2022-11-16T09:02:31.495Z,96.62
2022-11-16T09:03:31.444Z,96.52
2022-11-16T09:04:36.691Z,96.52
2022-11-16T09:05:32.427Z,96.52
2022-11-16T09:06:31.431Z,96.52
2022-11-16T09:07:31.437Z,96.52
2022-11-16T09:08:31.482Z,96.52
2022-11-16T09:09:38.906Z,96.42
2022-11-16T09:10:31.363Z,96.62
2022-11-16T09:11:31.352Z,96.58
2022-11-16T09:12:31.333Z,96.58
2022-11-16T09:13:31.355Z,96.37
2022-11-16T09:14:31.306Z,96.27
2022-11-16T09:15:31.304Z,96.27
2022-11-16T09:16:31.293Z,96.33
2022-11-16T09:17:31.272Z,96.02
2022-11-16T09:18:31.529Z,95.81
2022-11-16T09:19:31.242Z,95.50
2022-11-16T09:20:31.242Z,95.40
2022-11-16T09:21:31.245Z,95.40
2022-11-16T09:22:31.204Z,95.30
2022-11-16T09:23:31.183Z,95.20
2022-11-16T09:24:31.180Z,95.09
2022-11-16T09:25:31.174Z,94.99
2022-11-16T09:26:31.167Z,94.89
2022-11-16T09:27:31.152Z,94.99
2022-11-16T09:28:31.277Z,95.09
2022-11-16T09:29:31.118Z,95.20
2022-11-16T09:30:31.094Z,95.40
2022-11-16T09:31:31.097Z,95.50
2022-11-16T09:32:31.077Z,95.65
2022-11-16T09:33:31.380Z,95.65
2022-11-16T09:34:31.053Z,95.55
2022-11-16T09:35:31.047Z,95.55
2022-11-16T09:36:31.036Z,95.80
2022-11-16T09:37:31.096Z,95.90
2022-11-16T09:38:47.480Z,96.00
2022-11-16T09:39:32.294Z,96.21
2022-11-16T09:40:30.987Z,96.42
2022-11-16T09:41:30.968Z,96.42
2022-11-16T09:42:30.951Z,96.31
2022-11-16T09:43:31.194Z,96.42
2022-11-16T09:44:30.918Z,96.52
2022-11-16T09:45:30.919Z,96.62
2022-11-16T09:46:30.895Z,96.72
2022-11-16T09:47:30.972Z,96.72
2022-11-16T10:03:44.870Z,97.03
2022-11-16T10:04:44.854Z,97.14
2022-11-16T10:05:44.833Z,97.14
2022-11-16T10:06:44.830Z,97.03
2022-11-16T10:07:44.812Z,96.93
2022-11-16T10:08:44.790Z,96.93
2022-11-16T10:09:44.771Z,97.03
2022-11-16T10:10:44.774Z,96.93
2022-11-16T10:11:44.763Z,96.83
2022-11-16T10:12:44.762Z,96.78
2022-11-16T10:13:44.751Z,96.78
2022-11-16T10:14:44.710Z,96.78
2022-11-16T10:15:44.713Z,96.78
2022-11-16T10:16:44.701Z,96.93
2022-11-16T10:17:44.672Z,96.89
2022-11-16T10:18:54.535Z,96.93
2022-11-16T10:20:06.969Z,96.99
2022-11-16T10:20:44.848Z,97.09
2022-11-16T10:21:44.720Z,97.09
2022-11-16T10:22:44.641Z,97.09
2022-11-16T10:23:44.641Z,96.99
2022-11-16T10:24:44.599Z,96.99
2022-11-16T10:25:44.591Z,96.89
2022-11-16T10:26:44.559Z,96.78
2022-11-16T10:27:44.788Z,96.78
2022-11-16T10:28:45.756Z,96.89
2022-11-16T10:29:44.931Z,96.99
2022-11-16T10:30:44.546Z,96.99
2022-11-16T10:31:46.709Z,96.99
2022-11-16T10:32:46.686Z,96.89
2022-11-16T10:33:44.469Z,96.89
2022-11-16T10:34:44.480Z,96.89
2022-11-16T10:35:45.504Z,96.84
2022-11-16T10:36:44.431Z,96.84
2022-11-16T10:37:44.411Z,96.84
2022-11-16T10:38:44.561Z,96.84
2022-11-16T10:39:44.405Z,96.84
2022-11-16T10:40:45.167Z,96.84
2022-11-16T10:41:44.469Z,96.73
2022-11-16T10:42:44.457Z,96.73
2022-11-16T10:43:44.518Z,96.64
2022-11-16T10:44:45.473Z,96.64
2022-11-16T10:45:45.313Z,96.73
2022-11-16T10:46:44.458Z,96.84
2022-11-16T10:47:44.295Z,96.84
2022-11-16T10:48:44.476Z,96.73
2022-11-16T10:49:44.270Z,96.73
2022-11-16T10:50:45.273Z,96.73
2022-11-16T10:51:44.266Z,96.84
2022-11-16T10:52:44.265Z,96.80
2022-11-16T10:53:44.427Z,96.80
2022-11-16T10:54:44.723Z,96.84
2022-11-16T10:55:44.365Z,96.84
2022-11-16T10:57:05.277Z,96.84
2022-11-16T10:57:44.336Z,96.84
2022-11-16T10:58:44.365Z,96.80
2022-11-16T10:59:44.190Z,96.90
2022-11-16T11:00:44.218Z,97.00
2022-11-16T11:01:44.382Z,97.10
2022-11-16T11:02:44.707Z,97.10
2022-11-16T11:03:44.420Z,97.16
2022-11-16T11:04:44.274Z,97.16
2022-11-16T11:07:05.517Z,96.95
2022-11-16T11:08:05.376Z,96.85
2022-11-16T11:09:06.387Z,96.75
2022-11-16T11:10:05.250Z,96.70
2022-11-16T11:11:05.280Z,96.70
2022-11-16T11:12:05.424Z,96.70
2022-11-16T11:13:07.268Z,96.70
2022-11-16T11:14:05.484Z,96.60
2022-11-16T11:15:05.114Z,96.56
2022-11-16T11:16:05.207Z,96.56
2022-11-16T11:17:05.195Z,96.45
2022-11-16T11:18:05.071Z,96.45
2022-11-16T11:19:05.537Z,96.45
2022-11-16T11:20:12.558Z,96.41
2022-11-16T11:21:05.025Z,96.51
2022-11-16T11:22:05.033Z,96.51
2022-11-16T11:23:05.000Z,96.31
2022-11-16T11:24:37.386Z,96.20
2022-11-16T11:25:05.977Z,96.10
2022-11-16T11:26:04.953Z,96.10
2022-11-16T11:27:04.946Z,96.04
2022-11-16T11:28:04.937Z,95.94
2022-11-16T11:29:04.970Z,95.94
2022-11-16T11:30:04.924Z,95.84
2022-11-16T11:31:04.896Z,95.84
2022-11-16T11:32:04.905Z,95.94
2022-11-16T11:33:04.909Z,96.04
2022-11-16T11:34:04.878Z,96.04
2022-11-16T11:35:04.846Z,96.15
2022-11-16T11:36:04.835Z,96.25
2022-11-16T11:37:04.830Z,96.25
2022-11-16T11:38:08.074Z,96.25
2022-11-16T11:39:04.852Z,96.25
2022-11-16T11:40:04.805Z,96.35
2022-11-16T11:41:04.774Z,96.35
2022-11-16T11:42:04.757Z,96.31
2022-11-16T11:43:04.768Z,96.31
2022-11-16T11:44:04.736Z,96.31
2022-11-16T11:45:04.744Z,96.31
2022-11-16T11:46:04.705Z,96.31
2022-11-16T11:48:05.674Z,96.31
2022-11-16T11:48:14.199Z,96.31
2022-11-16T11:49:04.662Z,96.20
2022-11-16T11:50:04.649Z,96.31
2022-11-16T11:51:04.637Z,96.26
2022-11-16T11:52:04.651Z,96.37
2022-11-16T11:53:04.619Z,96.28
2022-11-16T11:54:04.615Z,95.72
2022-11-16T11:55:04.599Z,95.06
2022-11-16T11:56:04.593Z,94.40
2022-11-16T11:57:04.584Z,93.48
2022-11-16T11:58:04.549Z,93.24
2022-11-16T11:59:04.552Z,93.19
2022-11-16T12:00:04.519Z,92.74
2022-11-16T12:01:04.520Z,92.54
2022-11-16T12:02:04.514Z,91.72
2022-11-16T12:03:05.535Z,91.27
2022-11-16T12:04:04.458Z,90.92
2022-11-16T12:05:04.484Z,90.71
2022-11-16T12:06:04.441Z,89.49
2022-11-16T12:07:04.465Z,88.93
2022-11-16T12:08:04.411Z,88.40
2022-11-16T12:09:04.408Z,86.90
2022-11-16T12:10:04.402Z,85.66
2022-11-16T12:11:04.397Z,83.28
2022-11-16T12:12:04.389Z,82.17
2022-11-16T12:13:04.367Z,80.91
2022-11-16T12:14:04.337Z,79.85
2022-11-16T12:15:04.329Z,79.41
2022-11-16T12:16:04.328Z,78.09
2022-11-16T12:17:04.306Z,77.41
2022-11-16T12:18:04.280Z,76.46
2022-11-16T12:19:04.286Z,76.70
2022-11-16T12:20:04.258Z,76.03
2022-11-16T12:21:04.291Z,77.83
2022-11-16T12:22:04.242Z,79.72
2022-11-16T12:23:04.615Z,80.58
2022-11-16T12:24:04.211Z,82.24
2022-11-16T12:25:04.210Z,82.89
2022-11-16T12:26:04.194Z,83.03
2022-11-16T12:27:04.153Z,83.34
2022-11-16T12:28:04.167Z,83.89
2022-11-16T12:29:05.146Z,85.05
2022-11-16T12:30:04.131Z,86.00
2022-11-16T12:31:04.132Z,86.00
2022-11-16T12:32:04.123Z,86.35
2022-11-16T12:33:04.083Z,86.45
2022-11-16T12:34:05.074Z,86.65
2022-11-16T12:35:04.075Z,87.12
2022-11-16T12:36:04.057Z,86.98
2022-11-16T12:37:04.033Z,86.53
2022-11-16T12:38:04.034Z,85.82
2022-11-16T12:39:04.025Z,85.82
2022-11-16T12:40:03.986Z,84.70
2022-11-16T12:41:03.992Z,85.45
2022-11-16T12:42:03.986Z,86.00
2022-11-16T12:43:03.953Z,86.45
2022-11-16T12:44:03.937Z,87.00
2022-11-16T12:45:03.930Z,87.92
2022-11-16T12:46:03.926Z,88.43
2022-11-16T12:47:03.905Z,88.93
2022-11-16T12:48:03.886Z,89.04
2022-11-16T12:49:03.876Z,88.93
2022-11-16T12:50:03.866Z,89.25
2022-11-16T12:51:03.875Z,89.06
2022-11-16T12:52:03.847Z,87.49
2022-11-16T12:53:03.831Z,87.69
2022-11-16T12:54:03.805Z,87.08
2022-11-16T12:55:25.530Z,86.98
2022-11-16T12:56:04.806Z,86.77
2022-11-16T12:57:03.777Z,86.71
2022-11-16T12:58:03.765Z,87.32
2022-11-16T12:59:03.757Z,87.77
2022-11-16T13:00:03.744Z,88.08
2022-11-16T13:01:03.794Z,88.59
2022-11-16T13:02:03.712Z,88.59
2022-11-16T13:03:03.701Z,89.04
2022-11-16T13:04:03.686Z,89.75
2022-11-16T13:05:04.690Z,90.20
2022-11-16T13:06:03.676Z,90.66
2022-11-16T13:07:09.351Z,90.86
2022-11-16T13:08:04.628Z,91.52
2022-11-16T13:09:03.618Z,91.86
2022-11-16T13:10:03.600Z,92.27
2022-11-16T13:11:03.609Z,92.58
2022-11-16T13:12:03.588Z,93.03
2022-11-16T13:14:04.550Z,93.44
2022-11-16T13:15:03.553Z,93.65
2022-11-16T13:16:03.542Z,93.85
2022-11-16T13:17:03.521Z,94.10
2022-11-16T13:18:03.497Z,94.15
2022-11-16T13:19:03.496Z,94.11
2022-11-16T13:20:03.469Z,94.21
2022-11-16T13:21:03.472Z,94.07
2022-11-16T13:22:03.483Z,93.76
2022-11-16T13:23:03.431Z,93.51
2022-11-16T13:24:03.417Z,93.26
2022-11-16T13:25:03.429Z,92.50
2022-11-16T13:26:03.414Z,92.10